sensor_id;sensor_type;location;lat;lon;timestamp;P1;durP1;ratioP1;P2;durP2;ratioP2
29838;SDS011;18669;53.356;-1.464;2023-02-28T00:01:05;5.07;;;3.65;;
29838;SDS011;18669;53.356;-1.464;2023-02-28T00:03:31;4.97;;;3.60;;
29838;SDS011;18669;53.356;-1.464;2023-02-28T00:06:04;7.60;;;3.83;;
29838;SDS011;18669;53.356;-1.464;2023-02-28T00:08:32;9.25;;;4.03;;
29838;SDS011;18669;53.356;-1.464;2023-02-28T00:13:35;4.25;;;3.33;;
29838;SDS011;18669;53.356;-1.464;2023-02-28T00:16:06;5.38;;;3.13;;
29838;SDS011;18669;53.356;-1.464;2023-02-28T00:18:35;6.53;;;2.80;;
29838;SDS011;18669;53.356;-1.464;2023-02-28T00:21:01;4.13;;;2.90;;
29838;SDS011;18669;53.356;-1.464;2023-02-28T00:23:27;4.57;;;2.83;;
29838;SDS011;18669;53.356;-1.464;2023-02-28T00:25:53;3.85;;;2.90;;
29838;SDS011;18669;53.356;-1.464;2023-02-28T00:28:20;3.67;;;3.22;;
29838;SDS011;18669;53.356;-1.464;2023-02-28T00:33:12;4.40;;;3.25;;
29838;SDS011;18669;53.356;-1.464;2023-02-28T00:35:38;6.72;;;4.32;;
29838;SDS011;18669;53.356;-1.464;2023-02-28T00:38:04;6.88;;;4.85;;
29838;SDS011;18669;53.356;-1.464;2023-02-28T00:40:30;10.10;;;5.63;;
29838;SDS011;18669;53.356;-1.464;2023-02-28T00:42:56;6.90;;;5.13;;
29838;SDS011;18669;53.356;-1.464;2023-02-28T00:45:22;8.32;;;5.72;;
29838;SDS011;18669;53.356;-1.464;2023-02-28T00:47:48;9.95;;;6.47;;
29838;SDS011;18669;53.356;-1.464;2023-02-28T00:50:19;9.20;;;6.57;;
29838;SDS011;18669;53.356;-1.464;2023-02-28T00:52:46;10.95;;;6.68;;
29838;SDS011;18669;53.356;-1.464;2023-02-28T00:55:12;7.70;;;6.35;;
29838;SDS011;18669;53.356;-1.464;2023-02-28T00:57:38;10.50;;;6.47;;
29838;SDS011;18669;53.356;-1.464;2023-02-28T01:00:05;8.80;;;6.57;;
29838;SDS011;18669;53.356;-1.464;2023-02-28T01:02:32;8.57;;;6.82;;
29838;SDS011;18669;53.356;-1.464;2023-02-28T01:04:58;12.88;;;7.35;;
29838;SDS011;18669;53.356;-1.464;2023-02-28T01:07:25;13.88;;;7.80;;
29838;SDS011;18669;53.356;-1.464;2023-02-28T01:12:16;10.25;;;7.85;;
29838;SDS011;18669;53.356;-1.464;2023-02-28T01:14:42;13.30;;;7.00;;
29838;SDS011;18669;53.356;-1.464;2023-02-28T01:17:08;12.98;;;6.93;;
29838;SDS011;18669;53.356;-1.464;2023-02-28T01:22:05;9.80;;;6.20;;
29838;SDS011;18669;53.356;-1.464;2023-02-28T01:24:32;9.63;;;5.47;;
29838;SDS011;18669;53.356;-1.464;2023-02-28T01:26:58;10.82;;;5.80;;
29838;SDS011;18669;53.356;-1.464;2023-02-28T01:29:24;6.45;;;4.72;;
29838;SDS011;18669;53.356;-1.464;2023-02-28T01:34:16;7.03;;;4.00;;
29838;SDS011;18669;53.356;-1.464;2023-02-28T01:36:44;6.25;;;4.00;;
29838;SDS011;18669;53.356;-1.464;2023-02-28T01:39:11;4.85;;;3.30;;
29838;SDS011;18669;53.356;-1.464;2023-02-28T01:41:38;7.63;;;4.00;;
29838;SDS011;18669;53.356;-1.464;2023-02-28T01:44:06;5.30;;;3.30;;
29838;SDS011;18669;53.356;-1.464;2023-02-28T01:46:51;3.95;;;3.33;;
29838;SDS011;18669;53.356;-1.464;2023-02-28T01:49:16;5.75;;;3.45;;
29838;SDS011;18669;53.356;-1.464;2023-02-28T01:51:45;5.50;;;3.03;;
29838;SDS011;18669;53.356;-1.464;2023-02-28T01:54:18;5.40;;;3.10;;
29838;SDS011;18669;53.356;-1.464;2023-02-28T01:56:50;4.97;;;3.03;;
29838;SDS011;18669;53.356;-1.464;2023-02-28T01:59:29;5.45;;;3.50;;
29838;SDS011;18669;53.356;-1.464;2023-02-28T02:01:58;6.70;;;3.63;;
29838;SDS011;18669;53.356;-1.464;2023-02-28T02:04:26;6.90;;;3.60;;
29838;SDS011;18669;53.356;-1.464;2023-02-28T02:06:57;5.97;;;3.22;;
29838;SDS011;18669;53.356;-1.464;2023-02-28T02:09:24;4.20;;;2.75;;
29838;SDS011;18669;53.356;-1.464;2023-02-28T02:11:50;5.07;;;3.17;;
29838;SDS011;18669;53.356;-1.464;2023-02-28T02:29:57;4.68;;;3.58;;
29838;SDS011;18669;53.356;-1.464;2023-02-28T02:40:50;5.85;;;4.50;;
29838;SDS011;18669;53.356;-1.464;2023-02-28T02:46:06;7.22;;;4.38;;
29838;SDS011;18669;53.356;-1.464;2023-02-28T02:48:45;9.20;;;4.90;;
29838;SDS011;18669;53.356;-1.464;2023-02-28T02:51:16;12.98;;;6.00;;
29838;SDS011;18669;53.356;-1.464;2023-02-28T02:53:49;10.25;;;6.15;;
29838;SDS011;18669;53.356;-1.464;2023-02-28T02:56:27;14.68;;;8.13;;
29838;SDS011;18669;53.356;-1.464;2023-02-28T02:58:59;18.77;;;8.98;;
29838;SDS011;18669;53.356;-1.464;2023-02-28T03:01:27;15.93;;;8.52;;
29838;SDS011;18669;53.356;-1.464;2023-02-28T03:06:27;12.23;;;8.35;;
29838;SDS011;18669;53.356;-1.464;2023-02-28T03:11:20;11.52;;;7.75;;
29838;SDS011;18669;53.356;-1.464;2023-02-28T03:21:41;12.93;;;7.82;;
29838;SDS011;18669;53.356;-1.464;2023-02-28T03:24:08;10.65;;;7.45;;
29838;SDS011;18669;53.356;-1.464;2023-02-28T03:26:45;11.65;;;6.80;;
29838;SDS011;18669;53.356;-1.464;2023-02-28T03:30:01;9.25;;;6.55;;
29838;SDS011;18669;53.356;-1.464;2023-02-28T03:32:27;8.13;;;5.85;;
29838;SDS011;18669;53.356;-1.464;2023-02-28T03:37:38;10.90;;;6.55;;
29838;SDS011;18669;53.356;-1.464;2023-02-28T03:40:12;7.13;;;5.30;;
29838;SDS011;18669;53.356;-1.464;2023-02-28T03:42:41;6.55;;;5.05;;
29838;SDS011;18669;53.356;-1.464;2023-02-28T03:45:11;5.80;;;5.20;;
29838;SDS011;18669;53.356;-1.464;2023-02-28T03:50:53;5.97;;;4.28;;
29838;SDS011;18669;53.356;-1.464;2023-02-28T03:53:21;5.70;;;4.45;;
29838;SDS011;18669;53.356;-1.464;2023-02-28T03:56:42;6.45;;;4.35;;
29838;SDS011;18669;53.356;-1.464;2023-02-28T03:59:05;6.30;;;4.15;;
29838;SDS011;18669;53.356;-1.464;2023-02-28T04:01:37;5.97;;;4.45;;
29838;SDS011;18669;53.356;-1.464;2023-02-28T04:04:09;5.80;;;4.30;;
29838;SDS011;18669;53.356;-1.464;2023-02-28T04:06:36;6.18;;;4.88;;
29838;SDS011;18669;53.356;-1.464;2023-02-28T04:09:04;8.18;;;5.55;;
29838;SDS011;18669;53.356;-1.464;2023-02-28T04:11:33;8.25;;;5.57;;
29838;SDS011;18669;53.356;-1.464;2023-02-28T04:14:04;9.60;;;5.82;;
29838;SDS011;18669;53.356;-1.464;2023-02-28T04:16:32;7.97;;;5.78;;
29838;SDS011;18669;53.356;-1.464;2023-02-28T04:18:59;13.38;;;6.72;;
29838;SDS011;18669;53.356;-1.464;2023-02-28T04:21:35;10.55;;;7.43;;
29838;SDS011;18669;53.356;-1.464;2023-02-28T04:24:02;13.75;;;8.50;;
29838;SDS011;18669;53.356;-1.464;2023-02-28T04:26:30;12.43;;;9.20;;
29838;SDS011;18669;53.356;-1.464;2023-02-28T04:28:56;12.40;;;8.70;;
29838;SDS011;18669;53.356;-1.464;2023-02-28T04:31:23;12.73;;;9.02;;
29838;SDS011;18669;53.356;-1.464;2023-02-28T04:33:49;15.25;;;10.15;;
29838;SDS011;18669;53.356;-1.464;2023-02-28T04:36:15;18.65;;;10.48;;
29838;SDS011;18669;53.356;-1.464;2023-02-28T04:38:43;18.25;;;10.38;;
29838;SDS011;18669;53.356;-1.464;2023-02-28T04:41:11;16.02;;;10.35;;
29838;SDS011;18669;53.356;-1.464;2023-02-28T04:43:37;20.25;;;11.48;;
29838;SDS011;18669;53.356;-1.464;2023-02-28T04:46:04;14.70;;;10.25;;
29838;SDS011;18669;53.356;-1.464;2023-02-28T04:48:31;18.65;;;10.07;;
29838;SDS011;18669;53.356;-1.464;2023-02-28T04:51:02;16.77;;;10.10;;
29838;SDS011;18669;53.356;-1.464;2023-02-28T04:53:32;12.70;;;9.27;;
29838;SDS011;18669;53.356;-1.464;2023-02-28T04:55:59;13.77;;;9.43;;
29838;SDS011;18669;53.356;-1.464;2023-02-28T05:00:51;10.05;;;6.63;;
29838;SDS011;18669;53.356;-1.464;2023-02-28T05:03:18;9.85;;;6.22;;
29838;SDS011;18669;53.356;-1.464;2023-02-28T05:05:46;8.68;;;5.80;;
29838;SDS011;18669;53.356;-1.464;2023-02-28T05:08:12;7.88;;;5.47;;
29838;SDS011;18669;53.356;-1.464;2023-02-28T05:10:38;7.97;;;4.85;;
29838;SDS011;18669;53.356;-1.464;2023-02-28T05:15:30;8.40;;;4.82;;
29838;SDS011;18669;53.356;-1.464;2023-02-28T05:17:56;6.68;;;4.95;;
29838;SDS011;18669;53.356;-1.464;2023-02-28T05:20:22;8.32;;;5.32;;
29838;SDS011;18669;53.356;-1.464;2023-02-28T05:22:49;7.90;;;5.45;;
29838;SDS011;18669;53.356;-1.464;2023-02-28T05:25:16;7.80;;;5.70;;
29838;SDS011;18669;53.356;-1.464;2023-02-28T05:27:45;9.40;;;6.07;;
29838;SDS011;18669;53.356;-1.464;2023-02-28T05:32:37;8.55;;;6.35;;
29838;SDS011;18669;53.356;-1.464;2023-02-28T05:35:08;9.20;;;6.30;;
29838;SDS011;18669;53.356;-1.464;2023-02-28T05:37:36;15.02;;;6.78;;
29838;SDS011;18669;53.356;-1.464;2023-02-28T05:40:03;10.57;;;6.60;;
29838;SDS011;18669;53.356;-1.464;2023-02-28T05:42:36;9.70;;;6.30;;
29838;SDS011;18669;53.356;-1.464;2023-02-28T05:45:03;11.48;;;5.93;;
29838;SDS011;18669;53.356;-1.464;2023-02-28T05:47:30;12.82;;;6.68;;
29838;SDS011;18669;53.356;-1.464;2023-02-28T05:52:22;10.98;;;6.28;;
29838;SDS011;18669;53.356;-1.464;2023-02-28T05:54:48;13.27;;;5.93;;
29838;SDS011;18669;53.356;-1.464;2023-02-28T05:57:15;11.73;;;6.75;;
29838;SDS011;18669;53.356;-1.464;2023-02-28T05:59:41;10.57;;;5.97;;
29838;SDS011;18669;53.356;-1.464;2023-02-28T06:02:14;11.23;;;5.93;;
29838;SDS011;18669;53.356;-1.464;2023-02-28T06:04:42;11.85;;;6.53;;
29838;SDS011;18669;53.356;-1.464;2023-02-28T06:07:09;10.95;;;6.90;;
29838;SDS011;18669;53.356;-1.464;2023-02-28T06:09:36;14.10;;;7.35;;
29838;SDS011;18669;53.356;-1.464;2023-02-28T06:12:03;12.05;;;7.30;;
29838;SDS011;18669;53.356;-1.464;2023-02-28T06:14:31;14.38;;;8.43;;
29838;SDS011;18669;53.356;-1.464;2023-02-28T06:16:59;11.15;;;7.13;;
29838;SDS011;18669;53.356;-1.464;2023-02-28T06:19:25;13.65;;;7.97;;
29838;SDS011;18669;53.356;-1.464;2023-02-28T06:21:53;15.63;;;7.22;;
29838;SDS011;18669;53.356;-1.464;2023-02-28T06:24:20;11.40;;;7.10;;
29838;SDS011;18669;53.356;-1.464;2023-02-28T06:26:47;11.77;;;6.68;;
29838;SDS011;18669;53.356;-1.464;2023-02-28T06:31:43;12.40;;;6.70;;
29838;SDS011;18669;53.356;-1.464;2023-02-28T06:34:11;10.90;;;6.72;;
29838;SDS011;18669;53.356;-1.464;2023-02-28T06:36:39;10.68;;;6.57;;
29838;SDS011;18669;53.356;-1.464;2023-02-28T06:39:06;14.68;;;7.22;;
29838;SDS011;18669;53.356;-1.464;2023-02-28T06:41:33;11.13;;;6.70;;
29838;SDS011;18669;53.356;-1.464;2023-02-28T06:44:04;13.60;;;6.25;;
29838;SDS011;18669;53.356;-1.464;2023-02-28T06:46:31;10.35;;;6.25;;
29838;SDS011;18669;53.356;-1.464;2023-02-28T06:48:58;16.65;;;6.68;;
29838;SDS011;18669;53.356;-1.464;2023-02-28T06:51:25;10.82;;;6.20;;
29838;SDS011;18669;53.356;-1.464;2023-02-28T06:53:52;10.48;;;6.47;;
29838;SDS011;18669;53.356;-1.464;2023-02-28T06:56:19;10.57;;;5.72;;
29838;SDS011;18669;53.356;-1.464;2023-02-28T06:58:49;10.65;;;6.38;;
29838;SDS011;18669;53.356;-1.464;2023-02-28T07:01:16;8.95;;;5.88;;
29838;SDS011;18669;53.356;-1.464;2023-02-28T07:03:43;14.45;;;8.50;;
29838;SDS011;18669;53.356;-1.464;2023-02-28T07:06:09;12.63;;;6.80;;
29838;SDS011;18669;53.356;-1.464;2023-02-28T07:08:35;17.83;;;7.95;;
29838;SDS011;18669;53.356;-1.464;2023-02-28T07:11:01;13.27;;;7.47;;
29838;SDS011;18669;53.356;-1.464;2023-02-28T07:13:28;8.85;;;6.72;;
29838;SDS011;18669;53.356;-1.464;2023-02-28T07:16:02;14.45;;;7.25;;
29838;SDS011;18669;53.356;-1.464;2023-02-28T07:18:29;11.55;;;6.43;;
29838;SDS011;18669;53.356;-1.464;2023-02-28T07:20:56;15.48;;;6.57;;
29838;SDS011;18669;53.356;-1.464;2023-02-28T07:25:49;9.15;;;6.10;;
29838;SDS011;18669;53.356;-1.464;2023-02-28T07:28:15;14.00;;;6.45;;
29838;SDS011;18669;53.356;-1.464;2023-02-28T07:33:08;12.75;;;5.53;;
29838;SDS011;18669;53.356;-1.464;2023-02-28T07:35:34;9.07;;;6.25;;
29838;SDS011;18669;53.356;-1.464;2023-02-28T07:38:00;10.60;;;5.78;;
29838;SDS011;18669;53.356;-1.464;2023-02-28T07:40:26;9.07;;;5.70;;
29838;SDS011;18669;53.356;-1.464;2023-02-28T07:42:52;13.65;;;6.13;;
29838;SDS011;18669;53.356;-1.464;2023-02-28T07:45:18;8.30;;;5.45;;
29838;SDS011;18669;53.356;-1.464;2023-02-28T07:50:11;10.05;;;5.45;;
29838;SDS011;18669;53.356;-1.464;2023-02-28T07:52:39;9.68;;;4.80;;
29838;SDS011;18669;53.356;-1.464;2023-02-28T07:55:07;9.95;;;5.13;;
29838;SDS011;18669;53.356;-1.464;2023-02-28T07:57:35;9.55;;;4.90;;
29838;SDS011;18669;53.356;-1.464;2023-02-28T08:00:02;8.23;;;4.72;;
29838;SDS011;18669;53.356;-1.464;2023-02-28T08:02:30;8.38;;;4.78;;
29838;SDS011;18669;53.356;-1.464;2023-02-28T08:04:56;5.75;;;4.28;;
29838;SDS011;18669;53.356;-1.464;2023-02-28T08:07:22;16.75;;;5.55;;
29838;SDS011;18669;53.356;-1.464;2023-02-28T08:09:48;6.20;;;4.18;;
29838;SDS011;18669;53.356;-1.464;2023-02-28T08:12:14;12.05;;;3.92;;
29838;SDS011;18669;53.356;-1.464;2023-02-28T08:14:40;7.50;;;4.00;;
29838;SDS011;18669;53.356;-1.464;2023-02-28T08:17:06;8.15;;;4.20;;
29838;SDS011;18669;53.356;-1.464;2023-02-28T08:19:32;6.22;;;4.18;;
29838;SDS011;18669;53.356;-1.464;2023-02-28T08:21:58;11.63;;;4.88;;
29838;SDS011;18669;53.356;-1.464;2023-02-28T08:26:50;7.45;;;3.65;;
29838;SDS011;18669;53.356;-1.464;2023-02-28T08:29:16;6.13;;;4.38;;
29838;SDS011;18669;53.356;-1.464;2023-02-28T08:31:42;6.05;;;4.30;;
29838;SDS011;18669;53.356;-1.464;2023-02-28T08:36:36;12.18;;;5.00;;
29838;SDS011;18669;53.356;-1.464;2023-02-28T08:39:02;12.52;;;5.03;;
29838;SDS011;18669;53.356;-1.464;2023-02-28T08:41:29;6.80;;;4.68;;
29838;SDS011;18669;53.356;-1.464;2023-02-28T08:43:55;7.95;;;5.10;;
29838;SDS011;18669;53.356;-1.464;2023-02-28T08:46:22;9.13;;;5.75;;
29838;SDS011;18669;53.356;-1.464;2023-02-28T08:48:51;9.02;;;4.85;;
29838;SDS011;18669;53.356;-1.464;2023-02-28T08:51:18;11.55;;;4.90;;
29838;SDS011;18669;53.356;-1.464;2023-02-28T08:53:47;8.52;;;5.25;;
29838;SDS011;18669;53.356;-1.464;2023-02-28T08:56:15;8.05;;;5.60;;
29838;SDS011;18669;53.356;-1.464;2023-02-28T08:58:45;10.75;;;5.47;;
29838;SDS011;18669;53.356;-1.464;2023-02-28T09:03:39;7.82;;;5.25;;
29838;SDS011;18669;53.356;-1.464;2023-02-28T09:06:09;7.95;;;5.50;;
29838;SDS011;18669;53.356;-1.464;2023-02-28T09:08:37;10.35;;;5.47;;
29838;SDS011;18669;53.356;-1.464;2023-02-28T09:11:04;7.85;;;5.40;;
29838;SDS011;18669;53.356;-1.464;2023-02-28T09:13:31;7.07;;;4.32;;
29838;SDS011;18669;53.356;-1.464;2023-02-28T09:16:01;10.15;;;4.55;;
29838;SDS011;18669;53.356;-1.464;2023-02-28T09:18:28;6.88;;;4.45;;
29838;SDS011;18669;53.356;-1.464;2023-02-28T09:20:55;6.57;;;4.28;;
29838;SDS011;18669;53.356;-1.464;2023-02-28T09:23:22;5.45;;;4.25;;
29838;SDS011;18669;53.356;-1.464;2023-02-28T09:25:49;8.32;;;4.05;;
29838;SDS011;18669;53.356;-1.464;2023-02-28T09:28:17;5.13;;;3.83;;
29838;SDS011;18669;53.356;-1.464;2023-02-28T09:30:44;6.63;;;4.07;;
29838;SDS011;18669;53.356;-1.464;2023-02-28T09:33:12;7.80;;;4.03;;
29838;SDS011;18669;53.356;-1.464;2023-02-28T09:35:39;6.90;;;4.20;;
29838;SDS011;18669;53.356;-1.464;2023-02-28T09:40:35;7.47;;;3.97;;
29838;SDS011;18669;53.356;-1.464;2023-02-28T09:43:03;9.20;;;5.35;;
29838;SDS011;18669;53.356;-1.464;2023-02-28T09:45:39;9.95;;;4.80;;
29838;SDS011;18669;53.356;-1.464;2023-02-28T09:48:09;8.25;;;4.38;;
29838;SDS011;18669;53.356;-1.464;2023-02-28T09:50:50;6.75;;;4.75;;
29838;SDS011;18669;53.356;-1.464;2023-02-28T09:53:22;7.40;;;4.43;;
29838;SDS011;18669;53.356;-1.464;2023-02-28T09:56:15;7.45;;;3.90;;
29838;SDS011;18669;53.356;-1.464;2023-02-28T10:01:25;6.88;;;4.72;;
29838;SDS011;18669;53.356;-1.464;2023-02-28T10:04:00;7.13;;;4.10;;
29838;SDS011;18669;53.356;-1.464;2023-02-28T10:06:37;6.25;;;3.92;;
29838;SDS011;18669;53.356;-1.464;2023-02-28T10:09:29;8.98;;;4.68;;
29838;SDS011;18669;53.356;-1.464;2023-02-28T10:12:03;7.25;;;4.00;;
29838;SDS011;18669;53.356;-1.464;2023-02-28T10:14:31;8.38;;;3.88;;
29838;SDS011;18669;53.356;-1.464;2023-02-28T10:17:04;5.07;;;3.55;;
29838;SDS011;18669;53.356;-1.464;2023-02-28T10:19:52;6.15;;;4.03;;
29838;SDS011;18669;53.356;-1.464;2023-02-28T10:22:42;7.50;;;4.50;;
29838;SDS011;18669;53.356;-1.464;2023-02-28T10:25:34;7.25;;;4.45;;
29838;SDS011;18669;53.356;-1.464;2023-02-28T10:30:34;7.07;;;4.05;;
29838;SDS011;18669;53.356;-1.464;2023-02-28T10:33:02;10.35;;;4.10;;
29838;SDS011;18669;53.356;-1.464;2023-02-28T10:35:28;4.10;;;3.38;;
29838;SDS011;18669;53.356;-1.464;2023-02-28T10:37:58;6.30;;;3.50;;
29838;SDS011;18669;53.356;-1.464;2023-02-28T10:40:35;4.47;;;3.20;;
29838;SDS011;18669;53.356;-1.464;2023-02-28T10:45:39;4.45;;;3.28;;
29838;SDS011;18669;53.356;-1.464;2023-02-28T10:56:02;5.25;;;1.83;;
29838;SDS011;18669;53.356;-1.464;2023-02-28T10:58:50;4.80;;;2.28;;
29838;SDS011;18669;53.356;-1.464;2023-02-28T11:03:55;5.82;;;2.50;;
29838;SDS011;18669;53.356;-1.464;2023-02-28T11:06:23;4.95;;;2.75;;
29838;SDS011;18669;53.356;-1.464;2023-02-28T11:08:55;6.78;;;2.85;;
29838;SDS011;18669;53.356;-1.464;2023-02-28T11:11:24;3.20;;;2.55;;
29838;SDS011;18669;53.356;-1.464;2023-02-28T11:13:53;7.50;;;3.25;;
29838;SDS011;18669;53.356;-1.464;2023-02-28T11:16:21;3.38;;;2.55;;
29838;SDS011;18669;53.356;-1.464;2023-02-28T11:18:57;5.13;;;2.50;;
29838;SDS011;18669;53.356;-1.464;2023-02-28T11:21:26;5.13;;;3.30;;
29838;SDS011;18669;53.356;-1.464;2023-02-28T11:24:02;4.75;;;2.80;;
29838;SDS011;18669;53.356;-1.464;2023-02-28T11:26:45;3.80;;;3.08;;
29838;SDS011;18669;53.356;-1.464;2023-02-28T11:34:46;3.30;;;2.05;;
29838;SDS011;18669;53.356;-1.464;2023-02-28T11:37:30;6.07;;;2.22;;
29838;SDS011;18669;53.356;-1.464;2023-02-28T11:39:58;4.65;;;2.10;;
29838;SDS011;18669;53.356;-1.464;2023-02-28T11:42:30;5.03;;;2.25;;
29838;SDS011;18669;53.356;-1.464;2023-02-28T11:48:06;4.13;;;2.20;;
29838;SDS011;18669;53.356;-1.464;2023-02-28T11:56:33;8.40;;;2.70;;
29838;SDS011;18669;53.356;-1.464;2023-02-28T12:04:38;2.67;;;2.08;;
29838;SDS011;18669;53.356;-1.464;2023-02-28T12:13:05;3.33;;;1.70;;
29838;SDS011;18669;53.356;-1.464;2023-02-28T12:18:48;4.88;;;1.58;;
29838;SDS011;18669;53.356;-1.464;2023-02-28T12:27:20;3.78;;;2.50;;
29838;SDS011;18669;53.356;-1.464;2023-02-28T12:32:44;2.33;;;1.67;;
29838;SDS011;18669;53.356;-1.464;2023-02-28T12:35:16;3.42;;;2.40;;
29838;SDS011;18669;53.356;-1.464;2023-02-28T12:37:52;2.03;;;1.83;;
29838;SDS011;18669;53.356;-1.464;2023-02-28T12:40:44;4.47;;;2.00;;
29838;SDS011;18669;53.356;-1.464;2023-02-28T12:43:16;2.83;;;1.98;;
29838;SDS011;18669;53.356;-1.464;2023-02-28T12:48:25;2.47;;;2.22;;
29838;SDS011;18669;53.356;-1.464;2023-02-28T12:50:56;4.45;;;2.10;;
29838;SDS011;18669;53.356;-1.464;2023-02-28T12:53:30;3.28;;;1.98;;
29838;SDS011;18669;53.356;-1.464;2023-02-28T12:56:15;3.53;;;2.13;;
29838;SDS011;18669;53.356;-1.464;2023-02-28T12:58:47;2.80;;;2.30;;
29838;SDS011;18669;53.356;-1.464;2023-02-28T13:04:14;4.80;;;2.65;;
29838;SDS011;18669;53.356;-1.464;2023-02-28T13:07:08;1.92;;;1.65;;
29838;SDS011;18669;53.356;-1.464;2023-02-28T13:09:55;4.63;;;2.10;;
29838;SDS011;18669;53.356;-1.464;2023-02-28T13:12:23;2.60;;;2.30;;
29838;SDS011;18669;53.356;-1.464;2023-02-28T13:14:49;6.07;;;2.53;;
29838;SDS011;18669;53.356;-1.464;2023-02-28T13:17:23;2.95;;;2.45;;
29838;SDS011;18669;53.356;-1.464;2023-02-28T13:22:35;3.00;;;2.40;;
29838;SDS011;18669;53.356;-1.464;2023-02-28T13:25:49;2.80;;;2.50;;
29838;SDS011;18669;53.356;-1.464;2023-02-28T13:28:13;4.65;;;2.83;;
29838;SDS011;18669;53.356;-1.464;2023-02-28T13:31:14;8.55;;;4.00;;
29838;SDS011;18669;53.356;-1.464;2023-02-28T13:38:59;3.85;;;2.47;;
29838;SDS011;18669;53.356;-1.464;2023-02-28T13:41:48;2.72;;;2.47;;
29838;SDS011;18669;53.356;-1.464;2023-02-28T13:49:25;5.13;;;3.30;;
29838;SDS011;18669;53.356;-1.464;2023-02-28T14:05:48;2.85;;;2.05;;
29838;SDS011;18669;53.356;-1.464;2023-02-28T14:08:36;3.22;;;2.63;;
29838;SDS011;18669;53.356;-1.464;2023-02-28T14:11:04;7.82;;;3.25;;
29838;SDS011;18669;53.356;-1.464;2023-02-28T14:13:45;3.63;;;2.70;;
29838;SDS011;18669;53.356;-1.464;2023-02-28T14:16:13;8.75;;;3.85;;
29838;SDS011;18669;53.356;-1.464;2023-02-28T14:18:56;6.97;;;3.40;;
29838;SDS011;18669;53.356;-1.464;2023-02-28T14:21:30;5.85;;;3.50;;
29838;SDS011;18669;53.356;-1.464;2023-02-28T14:34:52;6.05;;;2.88;;
29838;SDS011;18669;53.356;-1.464;2023-02-28T14:37:36;2.15;;;1.90;;
29838;SDS011;18669;53.356;-1.464;2023-02-28T14:40:11;7.57;;;3.78;;
29838;SDS011;18669;53.356;-1.464;2023-02-28T14:42:45;4.18;;;2.30;;
29838;SDS011;18669;53.356;-1.464;2023-02-28T14:45:17;5.15;;;2.45;;
29838;SDS011;18669;53.356;-1.464;2023-02-28T14:47:45;4.15;;;2.30;;
29838;SDS011;18669;53.356;-1.464;2023-02-28T14:50:23;6.85;;;2.60;;
29838;SDS011;18669;53.356;-1.464;2023-02-28T14:52:55;3.92;;;2.42;;
29838;SDS011;18669;53.356;-1.464;2023-02-28T14:55:24;5.43;;;2.65;;
29838;SDS011;18669;53.356;-1.464;2023-02-28T14:57:56;3.72;;;2.40;;
29838;SDS011;18669;53.356;-1.464;2023-02-28T15:00:28;4.15;;;2.55;;
29838;SDS011;18669;53.356;-1.464;2023-02-28T15:02:56;3.65;;;2.75;;
29838;SDS011;18669;53.356;-1.464;2023-02-28T15:05:27;3.13;;;2.72;;
29838;SDS011;18669;53.356;-1.464;2023-02-28T15:08:16;5.80;;;2.40;;
29838;SDS011;18669;53.356;-1.464;2023-02-28T15:10:43;3.20;;;2.50;;
29838;SDS011;18669;53.356;-1.464;2023-02-28T15:13:12;6.20;;;2.05;;
29838;SDS011;18669;53.356;-1.464;2023-02-28T15:18:31;6.32;;;2.03;;
29838;SDS011;18669;53.356;-1.464;2023-02-28T15:24:03;3.17;;;1.95;;
29838;SDS011;18669;53.356;-1.464;2023-02-28T15:26:34;2.78;;;1.45;;
29838;SDS011;18669;53.356;-1.464;2023-02-28T15:29:10;2.42;;;1.60;;
29838;SDS011;18669;53.356;-1.464;2023-02-28T15:34:35;4.90;;;1.73;;
29838;SDS011;18669;53.356;-1.464;2023-02-28T15:37:06;5.90;;;3.80;;
29838;SDS011;18669;53.356;-1.464;2023-02-28T15:39:52;2.88;;;1.60;;
29838;SDS011;18669;53.356;-1.464;2023-02-28T15:42:20;5.72;;;1.95;;
29838;SDS011;18669;53.356;-1.464;2023-02-28T15:44:48;7.90;;;2.45;;
29838;SDS011;18669;53.356;-1.464;2023-02-28T15:47:19;7.38;;;2.35;;
29838;SDS011;18669;53.356;-1.464;2023-02-28T15:49:54;2.42;;;1.40;;
29838;SDS011;18669;53.356;-1.464;2023-02-28T15:52:34;3.72;;;1.80;;
29838;SDS011;18669;53.356;-1.464;2023-02-28T15:55:10;5.93;;;2.42;;
29838;SDS011;18669;53.356;-1.464;2023-02-28T15:57:40;2.00;;;1.60;;
29838;SDS011;18669;53.356;-1.464;2023-02-28T16:00:09;3.53;;;1.40;;
29838;SDS011;18669;53.356;-1.464;2023-02-28T16:02:39;5.15;;;1.70;;
29838;SDS011;18669;53.356;-1.464;2023-02-28T16:07:34;4.82;;;2.60;;
29838;SDS011;18669;53.356;-1.464;2023-02-28T16:10:02;6.65;;;2.78;;
29838;SDS011;18669;53.356;-1.464;2023-02-28T16:12:29;4.68;;;2.25;;
29838;SDS011;18669;53.356;-1.464;2023-02-28T16:14:59;3.60;;;1.80;;
29838;SDS011;18669;53.356;-1.464;2023-02-28T16:17:31;2.30;;;2.05;;
29838;SDS011;18669;53.356;-1.464;2023-02-28T16:20:00;3.50;;;2.40;;
29838;SDS011;18669;53.356;-1.464;2023-02-28T16:22:28;3.17;;;1.80;;
29838;SDS011;18669;53.356;-1.464;2023-02-28T16:24:54;2.08;;;1.55;;
29838;SDS011;18669;53.356;-1.464;2023-02-28T16:27:30;6.40;;;2.35;;
29838;SDS011;18669;53.356;-1.464;2023-02-28T16:29:58;2.60;;;1.85;;
29838;SDS011;18669;53.356;-1.464;2023-02-28T16:32:25;2.70;;;1.83;;
29838;SDS011;18669;53.356;-1.464;2023-02-28T16:34:51;4.70;;;2.50;;
29838;SDS011;18669;53.356;-1.464;2023-02-28T16:37:17;6.45;;;3.50;;
29838;SDS011;18669;53.356;-1.464;2023-02-28T16:39:44;7.03;;;3.42;;
29838;SDS011;18669;53.356;-1.464;2023-02-28T16:42:14;5.50;;;2.75;;
29838;SDS011;18669;53.356;-1.464;2023-02-28T16:44:45;6.72;;;3.53;;
29838;SDS011;18669;53.356;-1.464;2023-02-28T16:47:11;5.03;;;2.90;;
29838;SDS011;18669;53.356;-1.464;2023-02-28T16:49:37;3.67;;;2.38;;
29838;SDS011;18669;53.356;-1.464;2023-02-28T16:52:03;4.03;;;2.65;;
29838;SDS011;18669;53.356;-1.464;2023-02-28T16:54:31;8.07;;;1.95;;
29838;SDS011;18669;53.356;-1.464;2023-02-28T16:56:57;5.50;;;2.33;;
29838;SDS011;18669;53.356;-1.464;2023-02-28T16:59:23;4.68;;;1.90;;
29838;SDS011;18669;53.356;-1.464;2023-02-28T17:01:52;3.03;;;1.70;;
29838;SDS011;18669;53.356;-1.464;2023-02-28T17:04:18;3.30;;;2.20;;
29838;SDS011;18669;53.356;-1.464;2023-02-28T17:06:44;30.85;;;16.27;;
29838;SDS011;18669;53.356;-1.464;2023-02-28T17:09:17;26.55;;;12.55;;
29838;SDS011;18669;53.356;-1.464;2023-02-28T17:11:45;7.78;;;4.32;;
29838;SDS011;18669;53.356;-1.464;2023-02-28T17:14:12;148.25;;;87.72;;
29838;SDS011;18669;53.356;-1.464;2023-02-28T17:16:39;136.00;;;76.38;;
29838;SDS011;18669;53.356;-1.464;2023-02-28T17:19:14;138.32;;;63.60;;
29838;SDS011;18669;53.356;-1.464;2023-02-28T17:21:41;82.43;;;34.05;;
29838;SDS011;18669;53.356;-1.464;2023-02-28T17:24:09;38.75;;;16.95;;
29838;SDS011;18669;53.356;-1.464;2023-02-28T17:26:40;16.73;;;6.72;;
29838;SDS011;18669;53.356;-1.464;2023-02-28T17:29:20;13.07;;;5.82;;
29838;SDS011;18669;53.356;-1.464;2023-02-28T17:31:47;20.50;;;8.00;;
29838;SDS011;18669;53.356;-1.464;2023-02-28T17:34:13;14.77;;;4.95;;
29838;SDS011;18669;53.356;-1.464;2023-02-28T17:36:44;13.40;;;5.00;;
29838;SDS011;18669;53.356;-1.464;2023-02-28T17:39:12;5.13;;;2.90;;
29838;SDS011;18669;53.356;-1.464;2023-02-28T17:41:40;5.20;;;2.08;;
29838;SDS011;18669;53.356;-1.464;2023-02-28T17:44:07;3.75;;;1.60;;
29838;SDS011;18669;53.356;-1.464;2023-02-28T17:46:34;2.65;;;1.80;;
